D/T METAR WX W/DIR W/SPE G/SPE TEMP DEWP
25/05/20 16:50 EGPO 251550Z AUTO 19025G35KT 9999 FEW006/// BKN011/// BKN021/// 11/09 Q1024 S (190°) 28.8mph 40.3mph 11°C 9°C
25/05/20 16:20 EGPO 251520Z AUTO 20026G39KT 9999 FEW017/// SCT023/// OVC031/// 11/09 Q1024 SSW (200°) 29.9mph 44.9mph 11°C 9°C
25/05/20 15:50 EGPO 251450Z AUTO 20031G43KT 9999 OVC031/// 12/08 Q1024 SSW (200°) 35.7mph 49.5mph 12°C 8°C
25/05/20 15:20 EGPO 251420Z AUTO 19027G38KT 9999 -RA BKN036/// 13/09 Q1024 -RA S (190°) 31.1mph 43.7mph 13°C 9°C
25/05/20 14:50 EGPO 251350Z AUTO 19026G38KT 9999 NCD 15/08 Q1024 S (190°) 29.9mph 43.7mph 15°C 8°C
25/05/20 14:20 EGPO 251320Z AUTO 19029G39KT 9999 NCD 14/08 Q1023 S (190°) 33.4mph 44.9mph 14°C 8°C
25/05/20 13:50 EGPO 251250Z AUTO 19030G41KT 9999 NCD 14/07 Q1023 S (190°) 34.5mph 47.2mph 14°C 7°C
25/05/20 13:20 EGPO 251220Z AUTO 19027G38KT 9999 NCD 14/08 Q1023 S (190°) 31.1mph 43.7mph 14°C 8°C
25/05/20 12:50 EGPO 251150Z AUTO 18029KT 9999 NCD 14/07 Q1023 S (180°) 33.4mph 14°C 7°C
25/05/20 12:20 EGPO 251120Z AUTO 18028KT 9999 NCD 13/07 Q1023 S (180°) 32.2mph 13°C 7°C
25/05/20 11:50 EGPO 251050Z 19025KT 9999 FEW027 14/08 Q1024 S (190°) 28.8mph 14°C 8°C
25/05/20 11:20 EGPO 251020Z 19021G31KT 9999 FEW027 14/08 Q1024 S (190°) 24.2mph 35.7mph 14°C 8°C
25/05/20 10:50 EGPO 250950Z 19021KT 9999 FEW027 13/08 Q1024 S (190°) 24.2mph 13°C 8°C
25/05/20 10:20 EGPO 250920Z AUTO 20022KT 9999 NCD 14/08 Q1024 SSW (200°) 25.3mph 14°C 8°C
25/05/20 09:50 EGPO 250850Z AUTO 20021KT 9999 NCD 13/08 Q1024 SSW (200°) 24.2mph 13°C 8°C
25/05/20 09:20 EGPO 250820Z AUTO 20024KT 9999 NCD 12/08 Q1024 SSW (200°) 27.6mph 12°C 8°C
25/05/20 08:50 EGPO 250750Z AUTO 18015KT 9999 NCD 12/08 Q1025 S (180°) 17.3mph 12°C 8°C
25/05/20 08:20 EGPO 250720Z AUTO 17012G22KT 130V220 9999 NCD 12/08 Q1025 S (170°) 13.8mph 25.3mph 12°C 8°C
25/05/20 07:50 EGPO 250650Z AUTO 19019KT 9999 NCD 12/08 Q1025 S (190°) 21.9mph 12°C 8°C
25/05/20 07:20 EGPO 250620Z AUTO 18019KT 9999 FEW013/// 12/09 Q1025 S (180°) 21.9mph 12°C 9°C
25/05/20 06:50 EGPO 250550Z AUTO 20021KT 9999 FEW009/// 11/08 Q1025 SSW (200°) 24.2mph 11°C 8°C
25/05/20 06:20 EGPO 250520Z AUTO 21027KT 9999 BKN007/// 11/09 Q1025 SSW (210°) 31.1mph 11°C 9°C
25/05/20 05:50 EGPO 250450Z AUTO 20023KT 9999 BKN007/// 11/09 Q1025 SSW (200°) 26.5mph 11°C 9°C
25/05/20 05:20 EGPO 250420Z AUTO 19018KT 9999 BKN009/// BKN013/// 10/09 Q1025 S (190°) 20.7mph 10°C 9°C
25/05/20 04:50 EGPO 250350Z AUTO 19017KT 9999 BKN012/// 10/09 Q1025 S (190°) 19.6mph 10°C 9°C
25/05/20 04:20 EGPO 250320Z AUTO 20016KT 9999 BKN012/// 10/08 Q1025 SSW (200°) 18.4mph 10°C 8°C
25/05/20 03:50 EGPO 250250Z AUTO 20018KT 9999 BKN012/// OVC018/// 10/08 Q1026 SSW (200°) 20.7mph 10°C 8°C
25/05/20 03:20 EGPO 250220Z AUTO 19016KT 9999 BKN012/// 10/08 Q1026 S (190°) 18.4mph 10°C 8°C
25/05/20 02:50 EGPO 250150Z AUTO 20017KT 9999 SCT012/// 10/08 Q1026 SSW (200°) 19.6mph 10°C 8°C
25/05/20 02:20 EGPO 250120Z AUTO 21018KT 9999 BKN015/// BKN020/// 10/08 Q1026 SSW (210°) 20.7mph 10°C 8°C
25/05/20 01:50 EGPO 250050Z AUTO 20016KT 9999 FEW013/// BKN019/// OVC025/// 10/09 Q1026 SSW (200°) 18.4mph 10°C 9°C
25/05/20 01:20 EGPO 250020Z AUTO 19017KT 9999 FEW013/// SCT024/// BKN028/// 10/09 Q1026 S (190°) 19.6mph 10°C 9°C
25/05/20 00:50 EGPO 242350Z AUTO 20016KT 9999 OVC025/// 11/09 Q1026 SSW (200°) 18.4mph 11°C 9°C
25/05/20 00:20 EGPO 242320Z AUTO 20016KT 9999 FEW003/// SCT013/// BKN021/// 11/10 Q1026 SSW (200°) 18.4mph 11°C 10°C
24/05/20 23:50 EGPO 242250Z AUTO 20019KT 9999 -RA FEW009/// BKN020/// OVC036/// 11/10 Q1026 -RA SSW (200°) 21.9mph 11°C 10°C
24/05/20 23:20 EGPO 242220Z AUTO 20015KT 9999 FEW010/// BKN022/// BKN028/// 11/09 Q1026 SSW (200°) 17.3mph 11°C 9°C
24/05/20 22:50 EGPO 242150Z 19016KT 9999 FEW010 SCT013 BKN021 11/09 Q1026 S (190°) 18.4mph 11°C 9°C
24/05/20 22:20 EGPO 242120Z 19017KT 9999 VCSH BKN013 BKN022 11/09 Q1026 VCSH S (190°) 19.6mph 11°C 9°C
24/05/20 21:50 EGPO 242050Z AUTO 18015KT 9999 BKN016/// OVC030/// 11/09 Q1026 S (180°) 17.3mph 11°C 9°C
24/05/20 21:20 EGPO 242020Z AUTO 19013KT 9999 FEW019/// BKN025/// OVC034/// 11/09 Q1026 S (190°) 15.0mph 11°C 9°C
24/05/20 20:50 EGPO 241950Z AUTO 20010KT 9999 FEW029/// BKN036/// 12/09 Q1026 SSW (200°) 11.5mph 12°C 9°C
24/05/20 20:20 EGPO 241920Z AUTO 22013KT 9999 SCT035/// 12/08 Q1025 SW (220°) 15.0mph 12°C 8°C
24/05/20 19:50 EGPO 241850Z AUTO 22014KT 9999 BKN031/// 13/09 Q1025 SW (220°) 16.1mph 13°C 9°C
24/05/20 19:20 EGPO 241820Z AUTO 22014KT 9999 BKN028/// 13/08 Q1025 SW (220°) 16.1mph 13°C 8°C
24/05/20 18:50 EGPO 241750Z AUTO 22014KT 9999 BKN024/// OVC030/// 13/08 Q1025 SW (220°) 16.1mph 13°C 8°C
24/05/20 18:20 EGPO 241720Z AUTO 24014KT 9999 BKN026/// 13/08 Q1025 WSW (240°) 16.1mph 13°C 8°C
24/05/20 17:50 EGPO 241650Z 23016KT 9999 FEW015 BKN028 13/08 Q1024 SW (230°) 18.4mph 13°C 8°C
24/05/20 17:20 EGPO 241620Z 24014KT 200V260 9999 FEW015 BKN028 14/09 Q1024 WSW (240°) 16.1mph 14°C 9°C
24/05/20 16:50 EGPO 241550Z 23013KT 9999 FEW009 SCT015 BKN022 13/10 Q1024 SW (230°) 15.0mph 13°C 10°C
24/05/20 16:20 EGPO 241520Z 25017KT 9999 FEW009 SCT016 BKN024 13/10 Q1024 WSW (250°) 19.6mph 13°C 10°C
24/05/20 15:50 EGPO 241450Z AUTO 25016KT 9999 FEW005/// SCT012/// BKN020/// 13/11 Q1023 WSW (250°) 18.4mph 13°C 11°C
24/05/20 15:20 EGPO 241420Z AUTO 24014KT 9999 FEW007/// BKN012/// BKN019/// 13/11 Q1023 WSW (240°) 16.1mph 13°C 11°C
24/05/20 14:50 EGPO 241350Z 24015KT 9999 VCSH FEW003 SCT007 BKN014 13/11 Q1023 VCSH WSW (240°) 17.3mph 13°C 11°C
24/05/20 14:20 EGPO 241320Z 25015KT 9999 FEW003 SCT007 BKN014 13/11 Q1023 WSW (250°) 17.3mph 13°C 11°C
24/05/20 13:50 EGPO 241250Z 27015G25KT 9999 6000NW -DZ FEW003 SCT005 BKN012 12/11 Q1022 -DZ W (270°) 17.3mph 28.8mph 12°C 11°C
24/05/20 13:20 EGPO 241220Z 27019KT 9999 8000NW FEW003 SCT005 BKN009 13/11 Q1021 W (270°) 21.9mph 13°C 11°C
24/05/20 12:50 EGPO 241150Z 27017KT 9999 8000NW FEW003 SCT005 BKN008 13/11 Q1021 W (270°) 19.6mph 13°C 11°C
24/05/20 12:20 EGPO 241120Z 26016KT 7000 -RADZ SCT003 BKN005 BKN008 12/11 Q1020 -RA -DZ W (260°) 18.4mph 12°C 11°C
24/05/20 11:50 EGPO 241050Z 27018KT 9999 8000NW -DZ SCT003 SCT006 BKN009 13/11 Q1020 -DZ W (270°) 20.7mph 13°C 11°C
24/05/20 11:20 EGPO 241020Z 27018KT 9999 9000NW FEW003 SCT006 BKN009 13/11 Q1019 W (270°) 20.7mph 13°C 11°C
24/05/20 10:50 EGPO 240950Z AUTO 27017KT 9999 BKN006/// BKN009/// OVC018/// 13/11 Q1019 W (270°) 19.6mph 13°C 11°C
24/05/20 10:20 EGPO 240920Z AUTO 27015KT 9999 OVC004/// 12/11 Q1018 W (270°) 17.3mph 12°C 11°C
24/05/20 09:50 EGPO 240850Z AUTO 26009KT 9999 OVC005/// 11/11 Q1018 W (260°) 10.4mph 11°C 11°C
24/05/20 09:20 EGPO 240820Z 24007KT 9000 FEW003 SCT005 BKN008 11/10 Q1017 WSW (240°) 8.1mph 11°C 10°C
24/05/20 08:50 EGPO 240750Z 24007KT 9000 -DZ FEW003 SCT006 BKN009 11/10 Q1017 -DZ WSW (240°) 8.1mph 11°C 10°C
24/05/20 08:20 EGPO 240720Z 24008KT 8000 -RADZ FEW007 SCT011 BKN016 11/09 Q1017 -RA -DZ WSW (240°) 9.2mph 11°C 9°C
24/05/20 07:50 EGPO 240650Z 23008KT 9999 FEW011 BKN020 BKN040 11/08 Q1016 SW (230°) 9.2mph 11°C 8°C
24/05/20 07:20 EGPO 240620Z 24008KT 9999 FEW015 SCT032 BKN045 11/08 Q1016 WSW (240°) 9.2mph 11°C 8°C
24/05/20 06:50 EGPO 240550Z AUTO 24007KT 9999 BKN033/// 11/08 Q1016 WSW (240°) 8.1mph 11°C 8°C
24/05/20 06:20 EGPO 240520Z AUTO 25007KT 9999 SCT023/// SCT034/// 10/07 Q1015 WSW (250°) 8.1mph 10°C 7°C
24/05/20 05:50 EGPO 240450Z AUTO 25008KT 9999 BKN022/// 10/07 Q1015 WSW (250°) 9.2mph 10°C 7°C
24/05/20 05:20 EGPO 240420Z AUTO 26009KT 9999 BKN022/// OVC035/// 10/07 Q1014 W (260°) 10.4mph 10°C 7°C
24/05/20 04:50 EGPO 240350Z AUTO 26011KT 9999 BKN024/// OVC030/// 10/07 Q1014 W (260°) 12.7mph 10°C 7°C
24/05/20 04:20 EGPO 240320Z AUTO 25011KT 9999 BKN021/// OVC026/// 10/07 Q1013 WSW (250°) 12.7mph 10°C 7°C
24/05/20 03:20 EGPO 240220Z AUTO 25011KT 9999 FEW016/// BKN023/// OVC032/// 09/08 Q1012 WSW (250°) 12.7mph 9°C 8°C
24/05/20 02:50 EGPO 240150Z AUTO 26013KT 9999 BKN023/// OVC028/// 09/07 Q1012 W (260°) 15.0mph 9°C 7°C
24/05/20 02:20 EGPO 240120Z AUTO 26014KT 9999 OVC019/// 09/07 Q1011 W (260°) 16.1mph 9°C 7°C
24/05/20 01:50 EGPO 240050Z AUTO 27017KT 9999 OVC019/// 09/07 Q1010 W (270°) 19.6mph 9°C 7°C
24/05/20 01:20 EGPO 240020Z AUTO 27018KT 9999 OVC017/// 09/07 Q1010 W (270°) 20.7mph 9°C 7°C
24/05/20 00:50 EGPO 232350Z AUTO 27022G32KT 9999 OVC017/// 09/06 Q1009 W (270°) 25.3mph 36.8mph 9°C 6°C
24/05/20 00:20 EGPO 232320Z AUTO 27022G35KT 9999 BKN019/// OVC023/// 10/07 Q1009 W (270°) 25.3mph 40.3mph 10°C 7°C
23/05/20 23:50 EGPO 232250Z AUTO 27021KT 9999 SCT020/// BKN029/// 10/07 Q1008 W (270°) 24.2mph 10°C 7°C
23/05/20 23:20 EGPO 232220Z AUTO 27024G36KT 9999 FEW024/// 10/08 Q1008 W (270°) 27.6mph 41.4mph 10°C 8°C
23/05/20 22:50 EGPO 232150Z 27027G37KT 9999 VCSH FEW018 BKN025 10/07 Q1007 VCSH W (270°) 31.1mph 42.6mph 10°C 7°C
23/05/20 22:20 EGPO 232120Z 26025G35KT 9999 -RA FEW013 BKN021 10/08 Q1006 -RA W (260°) 28.8mph 40.3mph 10°C 8°C
23/05/20 21:50 EGPO 232050Z 26024KT 9000 -RA SCT013 BKN018 OVC026 10/08 Q1006 -RA W (260°) 27.6mph 10°C 8°C
23/05/20 21:20 EGPO 232020Z 27025G36KT 9999 -RA SCT013 BKN021 10/08 Q1005 RERA -RA W (270°) 28.8mph 41.4mph 10°C 8°C
23/05/20 20:50 EGPO 231950Z 26026G39KT 6000 RA FEW011 BKN016 10/08 Q1005 RA W (260°) 29.9mph 44.9mph 10°C 8°C
23/05/20 20:20 EGPO 231920Z 27027G38KT 9000 -RA FEW016 SCT020 BKN027 10/08 Q1004 -RA W (270°) 31.1mph 43.7mph 10°C 8°C
23/05/20 19:50 EGPO 231850Z 26030G45KT 9999 -RA SCT016 BKN021 10/08 Q1003 -RA W (260°) 34.5mph 51.8mph 10°C 8°C
23/05/20 19:20 EGPO 231820Z AUTO 26029G46KT 9999 -RA FEW019/// BKN024/// BKN031/// 10/08 Q1002 RERA -RA W (260°) 33.4mph 52.9mph 10°C 8°C
23/05/20 18:50 EGPO 231750Z AUTO 26028G43KT 7000 -RA FEW015/// SCT019/// BKN024/// 10/08 Q1002 -RA W (260°) 32.2mph 49.5mph 10°C 8°C
23/05/20 18:20 EGPO 231720Z AUTO 26028G40KT 7000 -RA FEW017/// BKN039/// 10/08 Q1001 -RA W (260°) 32.2mph 46.0mph 10°C 8°C
23/05/20 17:50 EGPO 231650Z AUTO 26028G45KT 9999 -RA FEW021/// BKN037/// BKN045/// 10/08 Q1001 -RA W (260°) 32.2mph 51.8mph 10°C 8°C
23/05/20 17:20 EGPO 231620Z AUTO 26027G38KT 9999 -RA SCT021/// BKN036/// BKN043/// 10/08 Q1000 -RA W (260°) 31.1mph 43.7mph 10°C 8°C
23/05/20 16:50 EGPO 231550Z AUTO 26024G38KT 9999 BKN021/// OVC031/// 10/08 Q1000 W (260°) 27.6mph 43.7mph 10°C 8°C